Time;durP1;ratioP1;P1;durP2;ratioP2;P2;SDS_P1;SDS_P2;PMS_P1;PMS_P2;Temp;Humidity;BMP_temperature;BMP_pressure;BME280_temperature;BME280_humidity;BME280_pressure;Samples;Min_cycle;Max_cycle;Signal;HPM_P1;HPM_P2
2021/01/27 00:02:02;;;;;;;7.45;4.70;;;;;;;;;;5033260;28;20079;-79
2021/01/27 00:04:28;;;;;;;8.60;5.60;;;;;;;;;;5034510;28;20496;-73
2021/01/27 00:06:54;;;;;;;10.48;4.75;;;;;;;;;;5034451;28;20029;-80
2021/01/27 00:09:20;;;;;;;7.88;4.32;;;;;;;;;;5032923;28;20072;-74
2021/01/27 00:11:46;;;;;;;8.48;5.50;;;;;;;;;;5034135;28;20079;-76
2021/01/27 00:14:12;;;;;;;7.97;4.97;;;;;;;;;;5032905;28;20488;-81
2021/01/27 00:16:38;;;;;;;9.23;5.65;;;;;;;;;;5039025;28;20025;-80
2021/01/27 00:19:04;;;;;;;8.40;5.03;;;;;;;;;;5053958;28;20036;-77
2021/01/27 00:21:30;;;;;;;9.55;5.88;;;;;;;;;;5054005;28;20055;-75
2021/01/27 00:23:56;;;;;;;8.70;5.80;;;;;;;;;;5054261;28;20104;-77
2021/01/27 00:26:22;;;;;;;7.07;4.53;;;;;;;;;;5052918;28;20029;-78
2021/01/27 00:28:48;;;;;;;7.28;5.13;;;;;;;;;;5054103;28;20049;-76
2021/01/27 00:31:15;;;;;;;10.13;5.22;;;;;;;;;;5053952;28;20036;-74
2021/01/27 00:33:41;;;;;;;8.32;5.22;;;;;;;;;;5053916;28;20071;-81
2021/01/27 00:36:07;;;;;;;7.63;4.65;;;;;;;;;;5053822;28;20036;-75
2021/01/27 00:38:33;;;;;;;7.43;4.68;;;;;;;;;;5053655;28;20064;-74
2021/01/27 00:40:59;;;;;;;5.88;3.95;;;;;;;;;;5053917;28;20025;-74
2021/01/27 00:43:26;;;;;;;7.55;4.28;;;;;;;;;;5052377;28;20024;-73
2021/01/27 00:45:52;;;;;;;5.90;4.05;;;;;;;;;;5053763;28;20021;-74
2021/01/27 00:48:18;;;;;;;7.43;4.45;;;;;;;;;;5052355;28;20049;-73
2021/01/27 00:50:44;;;;;;;6.10;3.78;;;;;;;;;;5053728;28;20017;-78
2021/01/27 00:53:10;;;;;;;5.35;3.30;;;;;;;;;;5052943;28;20017;-80
2021/01/27 00:55:37;;;;;;;5.18;3.53;;;;;;;;;;5052386;28;20063;-76
2021/01/27 00:58:03;;;;;;;5.60;3.13;;;;;;;;;;5053538;28;20039;-74
2021/01/27 01:00:30;;;;;;;6.88;3.10;;;;;;;;;;5052052;28;20113;-74
2021/01/27 01:02:56;;;;;;;5.35;3.05;;;;;;;;;;5051883;28;20024;-74
2021/01/27 01:05:25;;;;;;;5.10;3.03;;;;;;;;;;5053155;28;20717;-77
2021/01/27 01:07:51;;;;;;;7.70;3.25;;;;;;;;;;5052108;28;20116;-73
2021/01/27 01:10:25;;;;;;;4.93;2.92;;;;;;;;;;5052136;28;20025;-77
2021/01/27 01:12:52;;;;;;;5.30;3.25;;;;;;;;;;5053292;28;20025;-80
2021/01/27 01:15:19;;;;;;;5.22;3.10;;;;;;;;;;5052010;28;20044;-74
2021/01/27 01:17:45;;;;;;;4.82;3.00;;;;;;;;;;5052992;28;20032;-74
2021/01/27 01:20:14;;;;;;;5.63;3.00;;;;;;;;;;5053060;28;20029;-74
2021/01/27 01:23:10;;;;;;;4.38;2.67;;;;;;;;;;5052992;28;20040;-74
2021/01/27 01:25:36;;;;;;;7.18;2.83;;;;;;;;;;5038855;28;20520;-76
2021/01/27 01:28:03;;;;;;;7.13;3.13;;;;;;;;;;5052900;28;20534;-79
2021/01/27 01:30:33;;;;;;;6.15;3.10;;;;;;;;;;5053030;28;20029;-74
2021/01/27 01:33:00;;;;;;;5.88;3.15;;;;;;;;;;5052745;28;20077;-72
2021/01/27 01:35:27;;;;;;;6.78;3.28;;;;;;;;;;5052876;28;20473;-81
2021/01/27 01:37:53;;;;;;;5.20;2.80;;;;;;;;;;5052687;28;20089;-75
2021/01/27 01:40:39;;;;;;;4.10;2.55;;;;;;;;;;5051386;28;20021;-73
2021/01/27 01:43:22;;;;;;;5.15;2.63;;;;;;;;;;5052713;28;20095;-76
2021/01/27 01:45:58;;;;;;;4.68;2.70;;;;;;;;;;5051430;28;20032;-73
2021/01/27 01:48:45;;;;;;;5.78;3.10;;;;;;;;;;5051152;28;20056;-74
2021/01/27 01:51:17;;;;;;;5.43;2.63;;;;;;;;;;5052681;28;20029;-75
2021/01/27 01:53:44;;;;;;;4.47;2.40;;;;;;;;;;5051099;28;20063;-77
2021/01/27 01:56:12;;;;;;;5.32;2.95;;;;;;;;;;5052398;28;20029;-75
2021/01/27 01:58:39;;;;;;;4.90;2.80;;;;;;;;;;5051080;28;20029;-76
2021/01/27 02:01:05;;;;;;;5.30;3.10;;;;;;;;;;5052179;28;20496;-81
2021/01/27 02:03:35;;;;;;;5.65;3.03;;;;;;;;;;5051464;28;20021;-78
2021/01/27 02:06:09;;;;;;;5.43;2.97;;;;;;;;;;5051002;28;20108;-77
2021/01/27 02:08:36;;;;;;;4.53;2.70;;;;;;;;;;5050912;28;20021;-76
2021/01/27 02:11:02;;;;;;;5.22;2.63;;;;;;;;;;5051194;28;20111;-77
2021/01/27 02:13:28;;;;;;;4.88;2.78;;;;;;;;;;5051900;28;20621;-78
2021/01/27 02:16:04;;;;;;;4.60;2.70;;;;;;;;;;5052014;28;20484;-80
2021/01/27 02:18:33;;;;;;;4.00;2.20;;;;;;;;;;5051519;28;20107;-74
2021/01/27 02:21:12;;;;;;;5.80;2.83;;;;;;;;;;5051697;28;20410;-81
2021/01/27 02:23:57;;;;;;;5.65;2.90;;;;;;;;;;5051861;28;20024;-80
2021/01/27 02:26:32;;;;;;;5.20;2.80;;;;;;;;;;5051788;28;20052;-73
2021/01/27 02:29:17;;;;;;;4.85;2.35;;;;;;;;;;5051509;28;20021;-80
2021/01/27 02:31:53;;;;;;;11.23;3.03;;;;;;;;;;5050559;28;20039;-75
2021/01/27 02:34:28;;;;;;;5.85;3.00;;;;;;;;;;5050586;28;20032;-80
2021/01/27 02:37:03;;;;;;;8.00;2.90;;;;;;;;;;5050526;28;20063;-74
2021/01/27 02:39:32;;;;;;;4.25;2.70;;;;;;;;;;5051794;28;20043;-76
2021/01/27 02:42:10;;;;;;;4.80;2.88;;;;;;;;;;5050538;28;20060;-74
2021/01/27 02:44:43;;;;;;;4.55;2.80;;;;;;;;;;5051685;28;20488;-80
2021/01/27 02:47:14;;;;;;;4.60;2.60;;;;;;;;;;5050288;28;20103;-79
2021/01/27 02:49:46;;;;;;;5.57;2.65;;;;;;;;;;5051853;28;20116;-78
2021/01/27 02:52:14;;;;;;;4.80;2.40;;;;;;;;;;5051425;28;20031;-80
2021/01/27 02:54:54;;;;;;;4.38;2.30;;;;;;;;;;5050068;28;20032;-74
2021/01/27 02:57:29;;;;;;;3.83;2.30;;;;;;;;;;5051403;28;20052;-75
2021/01/27 02:59:58;;;;;;;4.97;3.08;;;;;;;;;;5051737;28;20473;-80
2021/01/27 03:02:59;;;;;;;4.65;2.90;;;;;;;;;;5050253;28;20120;-74
2021/01/27 03:05:30;;;;;;;5.85;2.88;;;;;;;;;;5012531;28;20061;-79
2021/01/27 03:08:00;;;;;;;5.25;2.63;;;;;;;;;;5047827;28;20061;-74
2021/01/27 03:10:47;;;;;;;4.93;2.78;;;;;;;;;;5051547;28;20049;-78
2021/01/27 03:13:13;;;;;;;4.85;2.67;;;;;;;;;;5051481;28;20032;-74
2021/01/27 03:15:40;;;;;;;4.55;2.70;;;;;;;;;;5053397;28;20027;-79
2021/01/27 03:18:09;;;;;;;5.13;2.95;;;;;;;;;;5055464;28;20029;-79
2021/01/27 03:20:38;;;;;;;4.22;2.50;;;;;;;;;;5055420;28;20479;-78
2021/01/27 03:23:18;;;;;;;5.78;2.80;;;;;;;;;;5055255;28;20021;-75
2021/01/27 03:25:55;;;;;;;4.82;2.80;;;;;;;;;;5053867;28;20021;-74
2021/01/27 03:28:27;;;;;;;4.95;2.70;;;;;;;;;;5055133;28;20025;-77
2021/01/27 03:30:53;;;;;;;5.28;2.83;;;;;;;;;;5052565;28;20534;-80
2021/01/27 03:33:25;;;;;;;4.82;2.85;;;;;;;;;;5054994;28;20025;-73
2021/01/27 03:35:57;;;;;;;4.80;2.70;;;;;;;;;;5055187;28;20025;-78
2021/01/27 03:38:32;;;;;;;4.50;2.57;;;;;;;;;;5054978;28;20029;-74
2021/01/27 03:41:10;;;;;;;4.82;2.80;;;;;;;;;;5054875;28;20056;-75
2021/01/27 03:43:40;;;;;;;4.30;2.70;;;;;;;;;;5055029;28;20032;-75
2021/01/27 03:46:11;;;;;;;4.82;2.88;;;;;;;;;;5054849;28;20075;-76
2021/01/27 03:48:42;;;;;;;4.60;2.80;;;;;;;;;;5054939;28;20033;-75
2021/01/27 03:51:10;;;;;;;5.75;2.92;;;;;;;;;;5055231;28;20029;-73
2021/01/27 03:53:36;;;;;;;5.20;2.70;;;;;;;;;;5053441;28;20082;-81
2021/01/27 03:56:22;;;;;;;4.95;2.90;;;;;;;;;;5054740;28;20059;-80
2021/01/27 03:58:49;;;;;;;4.90;2.92;;;;;;;;;;5054075;28;20606;-74
2021/01/27 04:01:17;;;;;;;5.75;2.78;;;;;;;;;;5053138;28;20476;-80
2021/01/27 04:03:43;;;;;;;5.22;3.10;;;;;;;;;;5053308;28;20060;-77
2021/01/27 04:06:10;;;;;;;4.35;2.88;;;;;;;;;;5053337;28;20078;-75
2021/01/27 04:08:36;;;;;;;6.88;3.70;;;;;;;;;;5054524;28;20028;-74
2021/01/27 04:11:03;;;;;;;5.07;3.13;;;;;;;;;;5053305;28;20021;-76
2021/01/27 04:13:29;;;;;;;6.15;3.20;;;;;;;;;;5053020;28;20499;-74
2021/01/27 04:15:55;;;;;;;5.03;3.22;;;;;;;;;;5054365;28;20055;-75
2021/01/27 04:18:21;;;;;;;5.82;3.58;;;;;;;;;;5054249;28;20037;-77
2021/01/27 04:20:47;;;;;;;6.70;3.42;;;;;;;;;;5054295;28;20027;-75
2021/01/27 04:23:13;;;;;;;6.40;3.90;;;;;;;;;;5054189;28;20029;-78
2021/01/27 04:25:39;;;;;;;5.38;3.60;;;;;;;;;;5054381;28;20017;-76
2021/01/27 04:28:06;;;;;;;6.88;3.28;;;;;;;;;;5053274;28;20017;-74
2021/01/27 04:30:32;;;;;;;6.57;3.33;;;;;;;;;;5054072;28;20021;-74
2021/01/27 04:32:59;;;;;;;8.25;4.25;;;;;;;;;;5053833;28;20025;-73
2021/01/27 04:35:25;;;;;;;5.90;3.85;;;;;;;;;;5052490;28;20029;-81
2021/01/27 04:37:51;;;;;;;5.22;3.40;;;;;;;;;;5053801;28;20581;-76
2021/01/27 04:40:20;;;;;;;5.50;3.40;;;;;;;;;;5053865;28;20480;-74
2021/01/27 04:42:47;;;;;;;5.43;3.58;;;;;;;;;;5053764;28;20025;-74
2021/01/27 04:45:13;;;;;;;6.80;3.88;;;;;;;;;;5052469;28;20027;-76
2021/01/27 04:47:57;;;;;;;6.45;3.92;;;;;;;;;;5053567;28;20519;-74
2021/01/27 04:50:27;;;;;;;7.60;4.60;;;;;;;;;;5053539;28;20021;-74
2021/01/27 04:53:20;;;;;;;6.35;3.90;;;;;;;;;;5053629;28;20065;-77
2021/01/27 04:56:09;;;;;;;5.57;3.70;;;;;;;;;;5051185;28;20037;-78
2021/01/27 04:58:54;;;;;;;6.13;4.00;;;;;;;;;;5050228;28;20303;-73
2021/01/27 05:01:20;;;;;;;5.90;3.92;;;;;;;;;;5052089;28;20108;-80
2021/01/27 05:03:52;;;;;;;7.60;5.30;;;;;;;;;;5053255;28;20365;-79
2021/01/27 05:06:24;;;;;;;6.88;4.53;;;;;;;;;;5051850;28;20040;-74
2021/01/27 05:09:09;;;;;;;6.80;4.50;;;;;;;;;;5052046;28;20037;-74
2021/01/27 05:11:35;;;;;;;7.07;4.55;;;;;;;;;;5051975;28;20032;-78
2021/01/27 05:14:02;;;;;;;7.45;4.90;;;;;;;;;;5053292;28;20499;-76
2021/01/27 05:16:30;;;;;;;6.68;4.72;;;;;;;;;;5050672;28;20032;-79
2021/01/27 05:18:58;;;;;;;7.78;4.43;;;;;;;;;;5051330;28;20038;-73
2021/01/27 05:21:38;;;;;;;16.83;4.63;;;;;;;;;;5038155;28;20104;-75
2021/01/27 05:24:05;;;;;;;12.88;4.72;;;;;;;;;;5053066;28;20416;-81
2021/01/27 05:26:34;;;;;;;8.88;4.68;;;;;;;;;;5040778;28;20029;-81
2021/01/27 05:29:03;;;;;;;10.73;4.40;;;;;;;;;;5032824;28;20104;-80
2021/01/27 05:31:48;;;;;;;10.85;4.60;;;;;;;;;;5031255;28;20454;-76
2021/01/27 05:34:26;;;;;;;14.23;4.65;;;;;;;;;;5032582;28;20025;-76
2021/01/27 05:36:52;;;;;;;7.70;4.70;;;;;;;;;;5048594;28;20031;-77
2021/01/27 05:39:18;;;;;;;15.00;5.65;;;;;;;;;;5052425;28;20059;-78
2021/01/27 05:41:44;;;;;;;8.82;5.22;;;;;;;;;;5051470;28;20029;-75
2021/01/27 05:44:14;;;;;;;8.25;5.80;;;;;;;;;;5051142;28;20262;-77
2021/01/27 05:46:41;;;;;;;13.13;6.07;;;;;;;;;;5052259;28;20041;-78
2021/01/27 05:49:11;;;;;;;8.55;5.30;;;;;;;;;;5050932;28;20052;-78
2021/01/27 05:51:38;;;;;;;9.50;5.88;;;;;;;;;;5052191;28;20082;-79
2021/01/27 05:54:21;;;;;;;10.82;5.07;;;;;;;;;;5050779;28;20477;-76
2021/01/27 05:56:47;;;;;;;8.80;4.78;;;;;;;;;;5050588;28;20063;-77
2021/01/27 05:59:22;;;;;;;8.60;5.13;;;;;;;;;;5050414;28;20082;-80
2021/01/27 06:01:49;;;;;;;11.18;5.43;;;;;;;;;;5052164;28;20028;-77
2021/01/27 06:04:21;;;;;;;9.73;5.43;;;;;;;;;;5050813;28;20418;-79
2021/01/27 06:06:50;;;;;;;8.48;5.32;;;;;;;;;;5050760;28;20037;-76
2021/01/27 06:09:55;;;;;;;9.07;5.57;;;;;;;;;;5051960;28;20101;-80
2021/01/27 06:12:21;;;;;;;7.97;5.15;;;;;;;;;;5029481;28;20040;-75
2021/01/27 06:14:48;;;;;;;8.55;5.63;;;;;;;;;;5004423;28;20065;-80
2021/01/27 06:17:16;;;;;;;6.78;4.93;;;;;;;;;;5025694;28;20029;-74
2021/01/27 06:19:42;;;;;;;8.13;5.18;;;;;;;;;;5031649;28;20079;-75
2021/01/27 06:22:08;;;;;;;8.52;5.40;;;;;;;;;;5031791;28;20022;-75
2021/01/27 06:24:34;;;;;;;8.50;4.93;;;;;;;;;;5032069;28;20025;-74
2021/01/27 06:27:12;;;;;;;6.90;5.18;;;;;;;;;;5030163;28;20489;-77
2021/01/27 06:29:47;;;;;;;8.40;5.78;;;;;;;;;;5031731;28;20037;-75
2021/01/27 06:32:18;;;;;;;15.73;6.35;;;;;;;;;;5031485;28;20102;-76
2021/01/27 06:35:05;;;;;;;7.32;5.60;;;;;;;;;;5031427;28;20025;-75
2021/01/27 06:37:37;;;;;;;7.65;5.63;;;;;;;;;;5030091;28;20029;-77
2021/01/27 06:40:03;;;;;;;8.50;5.63;;;;;;;;;;5030381;28;20057;-74
2021/01/27 06:42:35;;;;;;;9.23;5.72;;;;;;;;;;5030431;28;20057;-77
2021/01/27 06:45:07;;;;;;;8.75;5.78;;;;;;;;;;5030104;28;20542;-74
2021/01/27 06:47:39;;;;;;;9.02;6.10;;;;;;;;;;5031033;28;20052;-75
2021/01/27 06:50:08;;;;;;;7.90;5.60;;;;;;;;;;5029666;28;20025;-76
2021/01/27 06:52:37;;;;;;;8.68;6.05;;;;;;;;;;5031426;28;20087;-77
2021/01/27 06:55:04;;;;;;;9.40;6.10;;;;;;;;;;5030223;28;20029;-75
2021/01/27 06:57:39;;;;;;;8.50;5.35;;;;;;;;;;5031391;28;20021;-74
2021/01/27 07:00:11;;;;;;;7.50;5.10;;;;;;;;;;5029928;28;20459;-77
2021/01/27 07:02:53;;;;;;;10.98;5.53;;;;;;;;;;5031440;28;20022;-74
2021/01/27 07:05:25;;;;;;;11.85;5.75;;;;;;;;;;5031356;28;20032;-76
2021/01/27 07:08:10;;;;;;;8.73;5.43;;;;;;;;;;5031501;28;20036;-80
2021/01/27 07:10:47;;;;;;;11.95;5.50;;;;;;;;;;5030006;28;20030;-78
2021/01/27 07:13:16;;;;;;;11.50;5.40;;;;;;;;;;5031264;28;20027;-77
2021/01/27 07:16:01;;;;;;;10.40;5.25;;;;;;;;;;5045289;28;20031;-73
2021/01/27 07:18:42;;;;;;;10.75;5.78;;;;;;;;;;5050683;28;20499;-74
2021/01/27 07:21:14;;;;;;;7.72;5.20;;;;;;;;;;5051237;28;20029;-82
2021/01/27 07:23:59;;;;;;;20.38;5.10;;;;;;;;;;5051526;28;20021;-80
2021/01/27 07:26:25;;;;;;;6.93;4.15;;;;;;;;;;5053015;28;20025;-73
2021/01/27 07:29:02;;;;;;;10.05;4.45;;;;;;;;;;5049720;28;20075;-77
2021/01/27 07:31:34;;;;;;;8.68;4.55;;;;;;;;;;5051043;28;20032;-77
2021/01/27 07:34:03;;;;;;;7.60;4.63;;;;;;;;;;5050372;28;20025;-83
2021/01/27 07:36:48;;;;;;;6.70;4.43;;;;;;;;;;5049704;28;20351;-79
2021/01/27 07:39:20;;;;;;;7.38;4.60;;;;;;;;;;5049645;28;20545;-78
2021/01/27 07:42:13;;;;;;;7.00;4.90;;;;;;;;;;5051158;28;20017;-77
2021/01/27 07:44:41;;;;;;;7.90;5.25;;;;;;;;;;5042041;28;20468;-78
2021/01/27 07:47:13;;;;;;;9.77;4.72;;;;;;;;;;5049577;28;20396;-77
2021/01/27 07:49:51;;;;;;;7.50;4.68;;;;;;;;;;5050753;28;20159;-80
2021/01/27 07:52:27;;;;;;;6.85;4.32;;;;;;;;;;5050615;28;20036;-77
2021/01/27 07:55:03;;;;;;;6.03;3.88;;;;;;;;;;5050617;28;20468;-77
2021/01/27 07:57:32;;;;;;;5.93;3.95;;;;;;;;;;5050612;28;20037;-73
2021/01/27 08:00:17;;;;;;;5.95;4.30;;;;;;;;;;5050862;28;20397;-77
2021/01/27 08:03:10;;;;;;;6.72;3.95;;;;;;;;;;5051019;28;20112;-73
2021/01/27 08:05:37;;;;;;;7.82;3.67;;;;;;;;;;5045670;28;20037;-75
2021/01/27 08:08:10;;;;;;;7.43;4.35;;;;;;;;;;5054308;28;20472;-76
2021/01/27 08:10:37;;;;;;;6.15;3.88;;;;;;;;;;5054332;28;20029;-72
2021/01/27 08:13:04;;;;;;;6.80;4.70;;;;;;;;;;5052844;28;20369;-70
2021/01/27 08:15:30;;;;;;;7.82;4.40;;;;;;;;;;5053825;28;20070;-71
2021/01/27 08:17:58;;;;;;;6.68;4.10;;;;;;;;;;5053775;28;20127;-72
2021/01/27 08:20:42;;;;;;;6.35;3.97;;;;;;;;;;5050663;28;20020;-71
2021/01/27 08:23:10;;;;;;;5.90;3.97;;;;;;;;;;5047138;28;20070;-74
2021/01/27 08:25:55;;;;;;;13.88;4.78;;;;;;;;;;5051623;28;20110;-71
2021/01/27 08:28:36;;;;;;;7.93;4.07;;;;;;;;;;5052473;28;20028;-75
2021/01/27 08:31:08;;;;;;;6.07;3.47;;;;;;;;;;5052183;28;20027;-74
2021/01/27 08:33:40;;;;;;;6.40;3.75;;;;;;;;;;5052915;28;20021;-73
2021/01/27 08:36:08;;;;;;;6.63;4.33;;;;;;;;;;5052556;28;20017;-79
2021/01/27 08:38:35;;;;;;;5.82;3.47;;;;;;;;;;5051513;28;20033;-75
2021/01/27 08:41:02;;;;;;;5.35;3.63;;;;;;;;;;5050388;28;20541;-76
2021/01/27 08:43:33;;;;;;;6.15;3.78;;;;;;;;;;5051262;28;20028;-77
2021/01/27 08:46:19;;;;;;;5.47;3.70;;;;;;;;;;5037054;28;20044;-75
2021/01/27 08:48:47;;;;;;;5.70;3.97;;;;;;;;;;5043910;28;20495;-83
2021/01/27 08:51:33;;;;;;;6.60;3.60;;;;;;;;;;5051910;28;20033;-73
2021/01/27 08:53:59;;;;;;;7.20;3.40;;;;;;;;;;5051975;28;20504;-73
2021/01/27 08:56:25;;;;;;;5.88;3.47;;;;;;;;;;5052393;28;20016;-75
2021/01/27 08:59:11;;;;;;;5.00;3.28;;;;;;;;;;5050019;28;20036;-73
2021/01/27 09:01:57;;;;;;;5.82;3.35;;;;;;;;;;5048182;28;20092;-74
2021/01/27 09:04:41;;;;;;;5.40;3.38;;;;;;;;;;5033010;28;20036;-80
2021/01/27 09:07:08;;;;;;;6.22;3.30;;;;;;;;;;5033411;28;20021;-80
2021/01/27 09:09:38;;;;;;;6.43;3.40;;;;;;;;;;5033638;28;20093;-83
2021/01/27 09:12:09;;;;;;;6.30;3.00;;;;;;;;;;5031699;28;20029;-71
2021/01/27 09:14:36;;;;;;;7.40;3.15;;;;;;;;;;5041064;28;20027;-73
2021/01/27 09:17:04;;;;;;;6.53;3.17;;;;;;;;;;5053711;28;20029;-86
2021/01/27 09:19:31;;;;;;;5.95;3.58;;;;;;;;;;5036942;28;20477;-88
2021/01/27 09:22:03;;;;;;;6.68;3.10;;;;;;;;;;5033766;28;20018;-82
2021/01/27 09:24:29;;;;;;;5.97;3.07;;;;;;;;;;5032979;28;20060;-81
2021/01/27 09:26:56;;;;;;;4.30;2.80;;;;;;;;;;5041480;28;20055;-76
2021/01/27 09:29:22;;;;;;;4.80;2.65;;;;;;;;;;5050870;28;20484;-76
2021/01/27 09:31:48;;;;;;;5.03;2.58;;;;;;;;;;5050837;28;20032;-76
2021/01/27 09:34:15;;;;;;;5.57;3.25;;;;;;;;;;5051188;28;20121;-76
2021/01/27 09:36:42;;;;;;;5.95;2.53;;;;;;;;;;5033854;28;20049;-75
2021/01/27 09:39:08;;;;;;;6.25;2.80;;;;;;;;;;5041438;28;20127;-77
2021/01/27 09:41:35;;;;;;;4.88;2.42;;;;;;;;;;5030395;28;20021;-76
2021/01/27 09:44:03;;;;;;;4.72;2.50;;;;;;;;;;5032083;28;20484;-76
2021/01/27 09:46:32;;;;;;;6.82;2.83;;;;;;;;;;5032015;28;20037;-75
2021/01/27 09:49:05;;;;;;;4.53;2.53;;;;;;;;;;5048578;28;20033;-87
2021/01/27 09:51:32;;;;;;;6.68;2.55;;;;;;;;;;5051123;28;20032;-75
2021/01/27 09:54:00;;;;;;;5.43;2.70;;;;;;;;;;5040140;28;20365;-74
2021/01/27 09:56:27;;;;;;;6.13;2.55;;;;;;;;;;5042553;28;20060;-70
2021/01/27 09:58:53;;;;;;;5.00;2.70;;;;;;;;;;5052226;28;20025;-77
2021/01/27 10:01:21;;;;;;;4.25;2.42;;;;;;;;;;5044985;28;20028;-79
2021/01/27 10:03:48;;;;;;;4.28;2.30;;;;;;;;;;5032223;28;20100;-76
2021/01/27 10:06:33;;;;;;;5.10;2.60;;;;;;;;;;5032177;28;20021;-79
2021/01/27 10:09:00;;;;;;;5.25;2.40;;;;;;;;;;5031006;28;20025;-78
2021/01/27 10:11:31;;;;;;;4.57;2.05;;;;;;;;;;5032052;28;20029;-81
2021/01/27 10:13:59;;;;;;;5.72;2.75;;;;;;;;;;5032315;28;20150;-77
2021/01/27 10:16:25;;;;;;;3.88;2.30;;;;;;;;;;5032318;28;20507;-79
2021/01/27 10:18:59;;;;;;;4.43;2.30;;;;;;;;;;5032045;28;20385;-76
2021/01/27 10:21:26;;;;;;;3.92;2.25;;;;;;;;;;5034444;28;20484;-77
2021/01/27 10:23:52;;;;;;;6.25;2.80;;;;;;;;;;5046754;28;20573;-78
2021/01/27 10:26:30;;;;;;;6.20;2.08;;;;;;;;;;5031671;28;20025;-76
2021/01/27 10:29:16;;;;;;;4.90;2.40;;;;;;;;;;5032542;28;20029;-73
2021/01/27 10:31:44;;;;;;;4.28;2.40;;;;;;;;;;5031454;28;20022;-80
2021/01/27 10:34:10;;;;;;;6.20;2.33;;;;;;;;;;5031516;28;20025;-74
2021/01/27 10:36:39;;;;;;;4.53;2.28;;;;;;;;;;5030973;28;20021;-76
2021/01/27 10:39:11;;;;;;;10.57;2.50;;;;;;;;;;5030261;28;20095;-76
2021/01/27 10:41:37;;;;;;;7.53;2.35;;;;;;;;;;5031620;28;20033;-85
2021/01/27 10:44:32;;;;;;;4.65;2.03;;;;;;;;;;5030419;28;20022;-86
2021/01/27 10:47:08;;;;;;;3.05;1.83;;;;;;;;;;5030528;28;20536;-75
2021/01/27 10:49:54;;;;;;;5.47;2.35;;;;;;;;;;5034305;28;20029;-78
2021/01/27 10:52:22;;;;;;;3.55;2.00;;;;;;;;;;5051008;28;20024;-81
2021/01/27 10:54:49;;;;;;;4.45;2.22;;;;;;;;;;5041211;28;20021;-86
2021/01/27 10:57:18;;;;;;;3.60;1.80;;;;;;;;;;5031771;28;20105;-84
2021/01/27 10:59:44;;;;;;;7.03;1.88;;;;;;;;;;5030230;28;20417;-80
2021/01/27 11:02:10;;;;;;;3.40;1.65;;;;;;;;;;5030096;28;20109;-81
2021/01/27 11:04:36;;;;;;;3.72;1.70;;;;;;;;;;5031185;28;20075;-77
2021/01/27 11:07:03;;;;;;;3.42;1.65;;;;;;;;;;5029913;28;20018;-72
2021/01/27 11:09:29;;;;;;;3.35;1.98;;;;;;;;;;5029675;28;20032;-75
2021/01/27 11:11:55;;;;;;;3.25;1.90;;;;;;;;;;5030402;28;20377;-78
2021/01/27 11:14:21;;;;;;;4.45;1.88;;;;;;;;;;5031196;28;20058;-75
2021/01/27 11:16:47;;;;;;;6.72;1.90;;;;;;;;;;5031186;28;20025;-75
2021/01/27 11:19:14;;;;;;;3.92;1.70;;;;;;;;;;5031054;28;20057;-76
2021/01/27 11:21:40;;;;;;;6.20;1.60;;;;;;;;;;5029549;28;20564;-77
2021/01/27 11:24:06;;;;;;;3.13;1.63;;;;;;;;;;5031210;28;20037;-73
2021/01/27 11:26:33;;;;;;;3.33;1.40;;;;;;;;;;5031091;28;20021;-71
2021/01/27 11:28:59;;;;;;;3.38;1.50;;;;;;;;;;5031813;28;20022;-74
2021/01/27 11:31:28;;;;;;;4.50;1.63;;;;;;;;;;5031006;28;20052;-77
2021/01/27 11:33:55;;;;;;;3.92;1.63;;;;;;;;;;5029811;28;20040;-76
2021/01/27 11:36:22;;;;;;;4.18;1.85;;;;;;;;;;5032506;28;20097;-76
2021/01/27 11:38:49;;;;;;;8.20;2.00;;;;;;;;;;5033429;28;20124;-75
2021/01/27 11:41:15;;;;;;;3.97;1.92;;;;;;;;;;5034443;28;20022;-76
2021/01/27 11:43:43;;;;;;;3.90;1.92;;;;;;;;;;5033168;28;20128;-74
2021/01/27 11:46:13;;;;;;;3.80;1.92;;;;;;;;;;5035072;28;20037;-71
2021/01/27 11:48:39;;;;;;;4.18;1.95;;;;;;;;;;5034656;28;20040;-69
2021/01/27 11:51:06;;;;;;;5.63;1.90;;;;;;;;;;5034518;28;20384;-72
2021/01/27 11:53:32;;;;;;;3.90;1.90;;;;;;;;;;5036602;28;20025;-82
2021/01/27 11:55:58;;;;;;;3.35;1.60;;;;;;;;;;5050588;28;20044;-79
2021/01/27 11:58:24;;;;;;;7.63;2.00;;;;;;;;;;5040784;28;20078;-80
2021/01/27 12:00:51;;;;;;;4.28;1.92;;;;;;;;;;5054196;28;20025;-75
2021/01/27 12:03:17;;;;;;;4.65;1.75;;;;;;;;;;5041261;28;20533;-76
2021/01/27 12:05:44;;;;;;;6.30;1.90;;;;;;;;;;5034229;28;20025;-75
2021/01/27 12:08:10;;;;;;;5.60;1.50;;;;;;;;;;5034429;28;20068;-74
2021/01/27 12:10:37;;;;;;;5.22;1.88;;;;;;;;;;5035042;28;20027;-73
2021/01/27 12:13:04;;;;;;;3.03;1.67;;;;;;;;;;5033908;28;20044;-78
2021/01/27 12:15:30;;;;;;;5.32;1.80;;;;;;;;;;5047537;28;20029;-80
2021/01/27 12:17:56;;;;;;;3.97;1.95;;;;;;;;;;5052505;28;20033;-71
2021/01/27 12:20:22;;;;;;;3.72;1.80;;;;;;;;;;5053902;28;20017;-73
2021/01/27 12:22:48;;;;;;;4.40;1.95;;;;;;;;;;5053956;28;20567;-72
2021/01/27 12:25:15;;;;;;;4.05;1.85;;;;;;;;;;5052659;28;20017;-72
2021/01/27 12:27:41;;;;;;;3.53;2.00;;;;;;;;;;5052616;28;20427;-69
2021/01/27 12:30:09;;;;;;;6.22;2.10;;;;;;;;;;5053652;28;20056;-75
2021/01/27 12:32:35;;;;;;;3.92;1.85;;;;;;;;;;5052402;28;20017;-72
2021/01/27 12:35:01;;;;;;;3.63;1.70;;;;;;;;;;5053646;28;20021;-82
2021/01/27 12:37:27;;;;;;;3.85;2.00;;;;;;;;;;5053733;28;20025;-72
2021/01/27 12:39:53;;;;;;;4.25;2.10;;;;;;;;;;5052410;28;20503;-74
2021/01/27 12:42:19;;;;;;;5.55;1.92;;;;;;;;;;5053971;28;20036;-75
2021/01/27 12:44:45;;;;;;;3.50;1.70;;;;;;;;;;5054062;28;20472;-75
2021/01/27 12:47:12;;;;;;;3.63;1.70;;;;;;;;;;5051854;28;20044;-76
2021/01/27 12:49:38;;;;;;;3.70;2.03;;;;;;;;;;5053215;28;20021;-75
2021/01/27 12:52:06;;;;;;;7.20;2.00;;;;;;;;;;5039089;28;20030;-72
2021/01/27 12:54:32;;;;;;;6.55;2.22;;;;;;;;;;5033155;28;20024;-76
2021/01/27 12:56:58;;;;;;;6.97;2.22;;;;;;;;;;5033230;28;20025;-78
2021/01/27 12:59:24;;;;;;;5.50;1.95;;;;;;;;;;5032126;28;20416;-76
2021/01/27 13:01:50;;;;;;;4.95;2.00;;;;;;;;;;5032315;28;20048;-74
2021/01/27 13:04:16;;;;;;;5.03;2.28;;;;;;;;;;5031942;28;20034;-72
2021/01/27 13:06:43;;;;;;;4.07;2.00;;;;;;;;;;5033509;28;20045;-82
2021/01/27 13:09:09;;;;;;;3.65;1.92;;;;;;;;;;5033570;28;20096;-80
2021/01/27 13:11:35;;;;;;;4.72;1.90;;;;;;;;;;5033094;28;20021;-80
2021/01/27 13:14:01;;;;;;;4.78;1.80;;;;;;;;;;5033183;28;20503;-79
2021/01/27 13:16:27;;;;;;;3.72;1.80;;;;;;;;;;5031975;28;20044;-78
2021/01/27 13:18:53;;;;;;;4.20;2.00;;;;;;;;;;5033114;28;20033;-79
2021/01/27 13:21:19;;;;;;;3.80;1.88;;;;;;;;;;5033158;28;20079;-80
2021/01/27 13:23:48;;;;;;;7.00;2.40;;;;;;;;;;5032014;28;20464;-79
2021/01/27 13:26:15;;;;;;;4.55;2.03;;;;;;;;;;5031808;28;20029;-82
2021/01/27 13:28:41;;;;;;;3.70;1.88;;;;;;;;;;5033304;28;20476;-82
2021/01/27 13:31:07;;;;;;;5.60;1.80;;;;;;;;;;5032983;28;20025;-83
2021/01/27 13:33:33;;;;;;;4.35;1.85;;;;;;;;;;5033459;28;20026;-81
2021/01/27 13:35:59;;;;;;;5.80;2.58;;;;;;;;;;5032993;28;20496;-78
2021/01/27 13:38:25;;;;;;;6.10;1.90;;;;;;;;;;5031725;28;20044;-81
2021/01/27 13:40:52;;;;;;;5.85;2.60;;;;;;;;;;5032744;28;20035;-80
2021/01/27 13:43:18;;;;;;;5.10;3.03;;;;;;;;;;5031513;28;20481;-81
2021/01/27 13:45:44;;;;;;;6.85;2.55;;;;;;;;;;5031269;28;20100;-75
2021/01/27 13:48:11;;;;;;;45.05;12.40;;;;;;;;;;5032052;28;20045;-77
2021/01/27 13:50:37;;;;;;;34.00;8.20;;;;;;;;;;5032661;28;20053;-78
2021/01/27 13:53:03;;;;;;;19.70;6.22;;;;;;;;;;5052434;28;20017;-79
2021/01/27 13:55:30;;;;;;;20.08;6.75;;;;;;;;;;5052424;28;20020;-74
2021/01/27 13:57:56;;;;;;;16.73;5.75;;;;;;;;;;5052082;28;20064;-71
2021/01/27 14:00:22;;;;;;;15.05;5.20;;;;;;;;;;5050844;28;20039;-70
2021/01/27 14:02:48;;;;;;;12.98;5.20;;;;;;;;;;5050857;28;20049;-74
2021/01/27 14:05:19;;;;;;;12.48;5.25;;;;;;;;;;5052154;28;20029;-73
2021/01/27 14:07:46;;;;;;;18.42;5.60;;;;;;;;;;5050769;28;20029;-71
2021/01/27 14:10:12;;;;;;;15.88;5.18;;;;;;;;;;5052021;28;20052;-72
2021/01/27 14:12:38;;;;;;;14.35;4.93;;;;;;;;;;5052409;28;20082;-73
2021/01/27 14:15:05;;;;;;;13.48;5.20;;;;;;;;;;5050823;28;20116;-72
2021/01/27 14:17:32;;;;;;;15.48;5.07;;;;;;;;;;5051725;28;20033;-74
2021/01/27 14:20:01;;;;;;;11.93;4.45;;;;;;;;;;5051569;28;20087;-73
2021/01/27 14:22:27;;;;;;;12.73;4.60;;;;;;;;;;5051787;28;20049;-71
2021/01/27 14:24:53;;;;;;;13.90;4.63;;;;;;;;;;5051686;28;20057;-76
2021/01/27 14:27:19;;;;;;;11.82;3.95;;;;;;;;;;5041873;28;20033;-74
2021/01/27 14:29:45;;;;;;;11.07;4.30;;;;;;;;;;5031667;28;20025;-73
2021/01/27 14:32:11;;;;;;;14.50;4.30;;;;;;;;;;5031300;28;20032;-76
2021/01/27 14:34:37;;;;;;;9.50;4.25;;;;;;;;;;5030264;28;20029;-76
2021/01/27 14:37:03;;;;;;;9.82;4.32;;;;;;;;;;5030330;28;20025;-82
2021/01/27 14:39:29;;;;;;;11.23;4.50;;;;;;;;;;5031500;28;20493;-77
2021/01/27 14:41:55;;;;;;;10.75;4.57;;;;;;;;;;5030991;28;20021;-72
2021/01/27 14:44:21;;;;;;;10.38;4.80;;;;;;;;;;5031039;28;20091;-74
2021/01/27 14:46:50;;;;;;;10.10;4.05;;;;;;;;;;5031196;28;20033;-75
2021/01/27 14:49:16;;;;;;;10.20;4.03;;;;;;;;;;5030095;28;20493;-73
2021/01/27 14:51:47;;;;;;;8.65;3.90;;;;;;;;;;5031473;28;20056;-77
2021/01/27 14:54:14;;;;;;;8.02;4.25;;;;;;;;;;5029644;28;20642;-74
2021/01/27 14:56:40;;;;;;;8.63;4.25;;;;;;;;;;5031003;28;20469;-73
2021/01/27 14:59:06;;;;;;;6.47;3.70;;;;;;;;;;5030975;28;20458;-73